sensor_id;sensor_type;location;lat;lon;timestamp;temperature;humidity
6206;DHT22;3136;48.788;9.772;2023-12-04T00:01:16;-6.20;1.00
6206;DHT22;3136;48.788;9.772;2023-12-04T00:03:42;-6.20;1.00
6206;DHT22;3136;48.788;9.772;2023-12-04T00:06:09;-6.20;1.00
6206;DHT22;3136;48.788;9.772;2023-12-04T00:08:36;-6.20;1.00
6206;DHT22;3136;48.788;9.772;2023-12-04T00:11:03;-6.20;1.00
6206;DHT22;3136;48.788;9.772;2023-12-04T00:13:28;-6.20;1.00
6206;DHT22;3136;48.788;9.772;2023-12-04T00:15:54;-6.20;1.00
6206;DHT22;3136;48.788;9.772;2023-12-04T00:18:20;-6.20;1.00
6206;DHT22;3136;48.788;9.772;2023-12-04T00:20:45;-6.20;1.00
6206;DHT22;3136;48.788;9.772;2023-12-04T00:23:11;-6.20;1.00
6206;DHT22;3136;48.788;9.772;2023-12-04T00:25:36;-6.30;1.00
6206;DHT22;3136;48.788;9.772;2023-12-04T00:28:02;-6.30;1.00
6206;DHT22;3136;48.788;9.772;2023-12-04T00:30:27;-6.30;1.00
6206;DHT22;3136;48.788;9.772;2023-12-04T00:32:53;-6.40;1.00
6206;DHT22;3136;48.788;9.772;2023-12-04T00:35:18;-6.30;1.00
6206;DHT22;3136;48.788;9.772;2023-12-04T00:37:44;-6.40;1.00
6206;DHT22;3136;48.788;9.772;2023-12-04T00:40:10;-6.40;1.00
6206;DHT22;3136;48.788;9.772;2023-12-04T00:42:35;-6.40;1.00
6206;DHT22;3136;48.788;9.772;2023-12-04T00:45:02;-6.40;1.00
6206;DHT22;3136;48.788;9.772;2023-12-04T00:47:28;-6.40;1.00
6206;DHT22;3136;48.788;9.772;2023-12-04T00:49:53;-6.50;1.00
6206;DHT22;3136;48.788;9.772;2023-12-04T00:52:19;-6.50;1.00
6206;DHT22;3136;48.788;9.772;2023-12-04T00:54:45;-6.60;1.00
6206;DHT22;3136;48.788;9.772;2023-12-04T00:57:10;-6.60;1.00
6206;DHT22;3136;48.788;9.772;2023-12-04T00:59:36;-6.60;1.00
6206;DHT22;3136;48.788;9.772;2023-12-04T01:02:01;-6.60;1.00
6206;DHT22;3136;48.788;9.772;2023-12-04T01:04:27;-6.60;1.00
6206;DHT22;3136;48.788;9.772;2023-12-04T01:06:52;-6.60;1.00
6206;DHT22;3136;48.788;9.772;2023-12-04T01:09:18;-6.60;1.00
6206;DHT22;3136;48.788;9.772;2023-12-04T01:11:55;-6.60;1.00
6206;DHT22;3136;48.788;9.772;2023-12-04T01:14:21;-6.60;1.00
6206;DHT22;3136;48.788;9.772;2023-12-04T01:16:47;-6.60;1.00
6206;DHT22;3136;48.788;9.772;2023-12-04T01:19:13;-6.70;1.00
6206;DHT22;3136;48.788;9.772;2023-12-04T01:21:38;-6.70;1.00
6206;DHT22;3136;48.788;9.772;2023-12-04T01:24:04;-6.60;1.00
6206;DHT22;3136;48.788;9.772;2023-12-04T01:26:30;-6.80;1.00
6206;DHT22;3136;48.788;9.772;2023-12-04T01:28:55;-6.80;1.00
6206;DHT22;3136;48.788;9.772;2023-12-04T01:31:21;-6.80;1.00
6206;DHT22;3136;48.788;9.772;2023-12-04T01:33:47;-6.90;1.00
6206;DHT22;3136;48.788;9.772;2023-12-04T01:36:12;-6.80;1.00
6206;DHT22;3136;48.788;9.772;2023-12-04T01:38:38;-6.80;1.00
6206;DHT22;3136;48.788;9.772;2023-12-04T01:41:04;-6.80;1.00
6206;DHT22;3136;48.788;9.772;2023-12-04T01:43:30;-6.80;1.00
6206;DHT22;3136;48.788;9.772;2023-12-04T01:45:57;-6.80;1.00
6206;DHT22;3136;48.788;9.772;2023-12-04T01:48:23;-6.80;1.00
6206;DHT22;3136;48.788;9.772;2023-12-04T01:50:50;-6.80;1.00
6206;DHT22;3136;48.788;9.772;2023-12-04T01:53:16;-6.80;1.00
6206;DHT22;3136;48.788;9.772;2023-12-04T01:55:42;-6.70;1.00
6206;DHT22;3136;48.788;9.772;2023-12-04T01:58:08;-6.80;1.00
6206;DHT22;3136;48.788;9.772;2023-12-04T02:00:34;-6.80;1.00
6206;DHT22;3136;48.788;9.772;2023-12-04T02:03:00;-6.80;1.00
6206;DHT22;3136;48.788;9.772;2023-12-04T02:05:26;-6.80;1.00
6206;DHT22;3136;48.788;9.772;2023-12-04T02:07:53;-6.80;1.00
6206;DHT22;3136;48.788;9.772;2023-12-04T02:10:19;-6.80;1.00
6206;DHT22;3136;48.788;9.772;2023-12-04T02:12:44;-6.90;1.00
6206;DHT22;3136;48.788;9.772;2023-12-04T02:15:10;-6.90;1.00
6206;DHT22;3136;48.788;9.772;2023-12-04T02:17:36;-6.90;1.00
6206;DHT22;3136;48.788;9.772;2023-12-04T02:20:02;-6.90;1.00
6206;DHT22;3136;48.788;9.772;2023-12-04T02:22:29;-6.90;1.00
6206;DHT22;3136;48.788;9.772;2023-12-04T02:24:54;-6.90;1.00
6206;DHT22;3136;48.788;9.772;2023-12-04T02:27:29;-6.90;1.00
6206;DHT22;3136;48.788;9.772;2023-12-04T02:29:59;-6.90;1.00
6206;DHT22;3136;48.788;9.772;2023-12-04T02:32:29;-6.90;1.00
6206;DHT22;3136;48.788;9.772;2023-12-04T02:34:56;-6.90;1.00
6206;DHT22;3136;48.788;9.772;2023-12-04T02:37:24;-6.90;1.00
6206;DHT22;3136;48.788;9.772;2023-12-04T02:39:50;-6.90;1.00
6206;DHT22;3136;48.788;9.772;2023-12-04T02:42:20;-6.90;1.00
6206;DHT22;3136;48.788;9.772;2023-12-04T02:44:46;-6.90;1.00
6206;DHT22;3136;48.788;9.772;2023-12-04T02:47:12;-6.80;1.00
6206;DHT22;3136;48.788;9.772;2023-12-04T02:49:37;-6.80;1.00
6206;DHT22;3136;48.788;9.772;2023-12-04T02:52:03;-6.80;1.00
6206;DHT22;3136;48.788;9.772;2023-12-04T02:54:29;-5.80;1.00
6206;DHT22;3136;48.788;9.772;2023-12-04T02:56:54;-6.70;1.00
6206;DHT22;3136;48.788;9.772;2023-12-04T02:59:20;-6.70;1.00
6206;DHT22;3136;48.788;9.772;2023-12-04T03:01:45;-6.70;1.00
6206;DHT22;3136;48.788;9.772;2023-12-04T03:04:11;-6.80;99.90
6206;DHT22;3136;48.788;9.772;2023-12-04T03:06:36;-6.80;99.90
6206;DHT22;3136;48.788;9.772;2023-12-04T03:09:03;-6.80;1.00
6206;DHT22;3136;48.788;9.772;2023-12-04T03:11:30;-6.80;1.00
6206;DHT22;3136;48.788;9.772;2023-12-04T03:13:55;-6.80;1.00
6206;DHT22;3136;48.788;9.772;2023-12-04T03:16:21;-6.80;99.90
6206;DHT22;3136;48.788;9.772;2023-12-04T03:18:46;-6.80;99.90
6206;DHT22;3136;48.788;9.772;2023-12-04T03:21:12;-6.80;1.00
6206;DHT22;3136;48.788;9.772;2023-12-04T03:23:38;-6.80;1.00
6206;DHT22;3136;48.788;9.772;2023-12-04T03:26:03;-6.80;1.00
6206;DHT22;3136;48.788;9.772;2023-12-04T03:28:29;-6.80;1.00
6206;DHT22;3136;48.788;9.772;2023-12-04T03:30:55;-6.70;1.00
6206;DHT22;3136;48.788;9.772;2023-12-04T03:33:20;-6.70;1.00
6206;DHT22;3136;48.788;9.772;2023-12-04T03:35:46;-6.70;1.00
6206;DHT22;3136;48.788;9.772;2023-12-04T03:38:12;-6.70;1.00
6206;DHT22;3136;48.788;9.772;2023-12-04T03:40:38;-6.70;99.90
6206;DHT22;3136;48.788;9.772;2023-12-04T03:43:03;-6.80;1.00
6206;DHT22;3136;48.788;9.772;2023-12-04T03:45:29;-6.80;99.90
6206;DHT22;3136;48.788;9.772;2023-12-04T03:47:54;-6.70;1.00
6206;DHT22;3136;48.788;9.772;2023-12-04T03:50:20;-6.80;1.00
6206;DHT22;3136;48.788;9.772;2023-12-04T03:52:45;-6.80;1.00
6206;DHT22;3136;48.788;9.772;2023-12-04T03:55:11;-6.80;1.00
6206;DHT22;3136;48.788;9.772;2023-12-04T03:57:36;-6.70;1.00
6206;DHT22;3136;48.788;9.772;2023-12-04T04:00:03;-6.70;1.00
6206;DHT22;3136;48.788;9.772;2023-12-04T04:02:28;-6.70;1.00
6206;DHT22;3136;48.788;9.772;2023-12-04T04:04:54;-6.70;1.00
6206;DHT22;3136;48.788;9.772;2023-12-04T04:07:20;-6.70;1.00
6206;DHT22;3136;48.788;9.772;2023-12-04T04:09:45;-6.70;1.00
6206;DHT22;3136;48.788;9.772;2023-12-04T04:12:11;-6.60;1.00
6206;DHT22;3136;48.788;9.772;2023-12-04T04:14:37;-6.70;1.00
6206;DHT22;3136;48.788;9.772;2023-12-04T04:17:02;-6.60;1.00
6206;DHT22;3136;48.788;9.772;2023-12-04T04:19:28;-6.60;1.00
6206;DHT22;3136;48.788;9.772;2023-12-04T04:21:54;-6.60;1.00
6206;DHT22;3136;48.788;9.772;2023-12-04T04:24:20;-6.60;1.00
6206;DHT22;3136;48.788;9.772;2023-12-04T04:26:45;-6.60;1.00
6206;DHT22;3136;48.788;9.772;2023-12-04T04:29:11;-6.50;1.00
6206;DHT22;3136;48.788;9.772;2023-12-04T04:31:36;-6.50;1.00
6206;DHT22;3136;48.788;9.772;2023-12-04T04:34:03;-6.40;1.00
6206;DHT22;3136;48.788;9.772;2023-12-04T04:36:29;-6.50;1.00
6206;DHT22;3136;48.788;9.772;2023-12-04T04:38:54;-6.40;1.00
6206;DHT22;3136;48.788;9.772;2023-12-04T04:41:20;-6.50;1.00
6206;DHT22;3136;48.788;9.772;2023-12-04T04:43:45;-6.40;1.00
6206;DHT22;3136;48.788;9.772;2023-12-04T04:46:11;-6.50;1.00
6206;DHT22;3136;48.788;9.772;2023-12-04T04:48:36;-6.40;1.00
6206;DHT22;3136;48.788;9.772;2023-12-04T04:51:02;-6.40;1.00
6206;DHT22;3136;48.788;9.772;2023-12-04T04:53:28;-6.40;1.00
6206;DHT22;3136;48.788;9.772;2023-12-04T04:55:54;-6.30;1.00
6206;DHT22;3136;48.788;9.772;2023-12-04T04:58:20;-6.30;1.00
6206;DHT22;3136;48.788;9.772;2023-12-04T05:00:46;-6.30;1.00
6206;DHT22;3136;48.788;9.772;2023-12-04T05:03:12;-6.30;1.00
6206;DHT22;3136;48.788;9.772;2023-12-04T05:05:38;-6.20;1.00
6206;DHT22;3136;48.788;9.772;2023-12-04T05:08:04;-6.20;1.00
6206;DHT22;3136;48.788;9.772;2023-12-04T05:10:29;-6.20;1.00
6206;DHT22;3136;48.788;9.772;2023-12-04T05:12:55;-6.20;1.00
6206;DHT22;3136;48.788;9.772;2023-12-04T05:15:21;-6.20;1.00
6206;DHT22;3136;48.788;9.772;2023-12-04T05:17:46;-6.20;99.90
6206;DHT22;3136;48.788;9.772;2023-12-04T05:20:12;-6.20;99.90
6206;DHT22;3136;48.788;9.772;2023-12-04T05:22:38;-6.20;1.00
6206;DHT22;3136;48.788;9.772;2023-12-04T05:25:04;-6.10;1.00
6206;DHT22;3136;48.788;9.772;2023-12-04T05:27:29;-6.10;1.00
6206;DHT22;3136;48.788;9.772;2023-12-04T05:29:55;-6.10;1.00
6206;DHT22;3136;48.788;9.772;2023-12-04T05:32:20;-6.10;1.00
6206;DHT22;3136;48.788;9.772;2023-12-04T05:34:46;-6.10;1.00
6206;DHT22;3136;48.788;9.772;2023-12-04T05:37:11;-6.10;1.00
6206;DHT22;3136;48.788;9.772;2023-12-04T05:39:37;-6.00;1.00
6206;DHT22;3136;48.788;9.772;2023-12-04T05:42:02;-6.00;1.00
6206;DHT22;3136;48.788;9.772;2023-12-04T05:44:28;-5.80;1.00
6206;DHT22;3136;48.788;9.772;2023-12-04T05:46:54;-5.90;1.00
6206;DHT22;3136;48.788;9.772;2023-12-04T05:49:19;-5.80;1.00
6206;DHT22;3136;48.788;9.772;2023-12-04T05:51:45;-5.70;1.00
6206;DHT22;3136;48.788;9.772;2023-12-04T05:54:11;-5.80;1.00
6206;DHT22;3136;48.788;9.772;2023-12-04T05:56:36;-5.80;1.00
6206;DHT22;3136;48.788;9.772;2023-12-04T05:59:02;-5.80;1.00
6206;DHT22;3136;48.788;9.772;2023-12-04T06:01:28;-5.80;1.00
6206;DHT22;3136;48.788;9.772;2023-12-04T06:03:54;-5.80;99.90
6206;DHT22;3136;48.788;9.772;2023-12-04T06:06:19;-5.80;99.90
6206;DHT22;3136;48.788;9.772;2023-12-04T06:08:45;-5.80;99.90
6206;DHT22;3136;48.788;9.772;2023-12-04T06:11:10;-5.80;1.00
6206;DHT22;3136;48.788;9.772;2023-12-04T06:13:36;-5.80;1.00
6206;DHT22;3136;48.788;9.772;2023-12-04T06:16:01;-5.90;99.90
6206;DHT22;3136;48.788;9.772;2023-12-04T06:18:27;-5.80;1.00
6206;DHT22;3136;48.788;9.772;2023-12-04T06:20:53;-5.80;1.00
6206;DHT22;3136;48.788;9.772;2023-12-04T06:23:18;-5.80;1.00
6206;DHT22;3136;48.788;9.772;2023-12-04T06:25:44;-5.80;1.00
6206;DHT22;3136;48.788;9.772;2023-12-04T06:28:10;-5.80;1.00
6206;DHT22;3136;48.788;9.772;2023-12-04T06:30:36;-5.80;1.00
6206;DHT22;3136;48.788;9.772;2023-12-04T06:33:02;-5.80;1.00
6206;DHT22;3136;48.788;9.772;2023-12-04T06:35:28;-5.80;1.00
6206;DHT22;3136;48.788;9.772;2023-12-04T06:37:54;-5.80;1.00
6206;DHT22;3136;48.788;9.772;2023-12-04T06:40:20;-5.80;1.00
6206;DHT22;3136;48.788;9.772;2023-12-04T06:42:47;-5.80;1.00
6206;DHT22;3136;48.788;9.772;2023-12-04T06:45:12;-5.80;1.00
6206;DHT22;3136;48.788;9.772;2023-12-04T06:47:40;-5.70;1.00
6206;DHT22;3136;48.788;9.772;2023-12-04T06:50:06;-5.70;1.00
6206;DHT22;3136;48.788;9.772;2023-12-04T06:52:31;-5.70;1.00
6206;DHT22;3136;48.788;9.772;2023-12-04T06:54:57;-5.60;1.00
6206;DHT22;3136;48.788;9.772;2023-12-04T06:57:22;-5.70;1.00
6206;DHT22;3136;48.788;9.772;2023-12-04T06:59:48;-5.60;1.00
6206;DHT22;3136;48.788;9.772;2023-12-04T07:02:14;-5.60;1.00
6206;DHT22;3136;48.788;9.772;2023-12-04T07:04:39;-5.60;1.00
6206;DHT22;3136;48.788;9.772;2023-12-04T07:07:05;-5.50;1.00
6206;DHT22;3136;48.788;9.772;2023-12-04T07:09:32;-5.50;1.00
6206;DHT22;3136;48.788;9.772;2023-12-04T07:11:57;-5.40;1.00
6206;DHT22;3136;48.788;9.772;2023-12-04T07:14:23;-5.40;1.00
6206;DHT22;3136;48.788;9.772;2023-12-04T07:16:48;-5.30;1.00
6206;DHT22;3136;48.788;9.772;2023-12-04T07:19:15;-5.30;1.00
6206;DHT22;3136;48.788;9.772;2023-12-04T07:21:42;-5.30;1.00
6206;DHT22;3136;48.788;9.772;2023-12-04T07:24:07;-5.20;1.00
6206;DHT22;3136;48.788;9.772;2023-12-04T07:26:36;-5.10;1.00
6206;DHT22;3136;48.788;9.772;2023-12-04T07:29:02;-5.10;1.00
6206;DHT22;3136;48.788;9.772;2023-12-04T07:31:28;-5.00;1.00
6206;DHT22;3136;48.788;9.772;2023-12-04T07:33:54;-4.90;1.00
6206;DHT22;3136;48.788;9.772;2023-12-04T07:36:20;-4.90;1.00
6206;DHT22;3136;48.788;9.772;2023-12-04T07:38:45;-4.90;1.00
6206;DHT22;3136;48.788;9.772;2023-12-04T07:41:11;-4.80;1.00
6206;DHT22;3136;48.788;9.772;2023-12-04T07:43:36;-4.80;1.00
6206;DHT22;3136;48.788;9.772;2023-12-04T07:46:02;-4.70;1.00
6206;DHT22;3136;48.788;9.772;2023-12-04T07:48:30;-4.70;1.00
6206;DHT22;3136;48.788;9.772;2023-12-04T07:50:55;-4.70;1.00
6206;DHT22;3136;48.788;9.772;2023-12-04T07:53:21;-4.60;1.00
6206;DHT22;3136;48.788;9.772;2023-12-04T07:55:46;-4.60;1.00
6206;DHT22;3136;48.788;9.772;2023-12-04T07:58:13;-4.50;1.00
6206;DHT22;3136;48.788;9.772;2023-12-04T08:00:39;-4.50;1.00
6206;DHT22;3136;48.788;9.772;2023-12-04T08:03:05;-4.40;1.00
6206;DHT22;3136;48.788;9.772;2023-12-04T08:05:30;-4.30;1.00
6206;DHT22;3136;48.788;9.772;2023-12-04T08:07:57;-4.20;1.00
6206;DHT22;3136;48.788;9.772;2023-12-04T08:10:23;-4.10;1.00
6206;DHT22;3136;48.788;9.772;2023-12-04T08:12:49;-4.00;1.00
6206;DHT22;3136;48.788;9.772;2023-12-04T08:15:14;-3.90;99.90
6206;DHT22;3136;48.788;9.772;2023-12-04T08:17:40;-3.80;99.90
6206;DHT22;3136;48.788;9.772;2023-12-04T08:20:07;-3.80;50.10
6206;DHT22;3136;48.788;9.772;2023-12-04T08:22:32;-3.70;1.00
6206;DHT22;3136;48.788;9.772;2023-12-04T08:24:58;-3.70;11.60
6206;DHT22;3136;48.788;9.772;2023-12-04T08:27:24;-3.70;1.00
6206;DHT22;3136;48.788;9.772;2023-12-04T08:29:50;-3.70;99.90
6206;DHT22;3136;48.788;9.772;2023-12-04T08:32:16;-3.60;99.90
6206;DHT22;3136;48.788;9.772;2023-12-04T08:34:41;-3.60;99.90
6206;DHT22;3136;48.788;9.772;2023-12-04T08:37:07;-3.50;1.00
6206;DHT22;3136;48.788;9.772;2023-12-04T08:39:32;-3.40;1.00
6206;DHT22;3136;48.788;9.772;2023-12-04T08:41:58;-3.30;99.90
6206;DHT22;3136;48.788;9.772;2023-12-04T08:44:23;-3.30;99.90
6206;DHT22;3136;48.788;9.772;2023-12-04T08:46:49;-3.30;1.00
6206;DHT22;3136;48.788;9.772;2023-12-04T08:49:15;-3.20;51.50
6206;DHT22;3136;48.788;9.772;2023-12-04T08:51:41;-3.20;1.00
6206;DHT22;3136;48.788;9.772;2023-12-04T08:54:07;-3.20;99.90
6206;DHT22;3136;48.788;9.772;2023-12-04T08:56:32;-3.20;90.10
6206;DHT22;3136;48.788;9.772;2023-12-04T08:58:58;-3.20;1.00
6206;DHT22;3136;48.788;9.772;2023-12-04T09:01:24;-3.20;1.00
6206;DHT22;3136;48.788;9.772;2023-12-04T09:03:49;-3.20;1.00
6206;DHT22;3136;48.788;9.772;2023-12-04T09:06:15;-3.10;1.00
6206;DHT22;3136;48.788;9.772;2023-12-04T09:08:41;-3.00;1.00
6206;DHT22;3136;48.788;9.772;2023-12-04T09:11:06;-2.90;1.00
6206;DHT22;3136;48.788;9.772;2023-12-04T09:13:32;-2.80;84.30
6206;DHT22;3136;48.788;9.772;2023-12-04T09:15:59;-2.60;99.90
6206;DHT22;3136;48.788;9.772;2023-12-04T09:18:25;-2.50;99.90
6206;DHT22;3136;48.788;9.772;2023-12-04T09:20:50;-2.30;55.20
6206;DHT22;3136;48.788;9.772;2023-12-04T09:23:16;-2.30;1.00
6206;DHT22;3136;48.788;9.772;2023-12-04T09:25:41;-2.10;33.80
6206;DHT22;3136;48.788;9.772;2023-12-04T09:28:07;-2.10;1.00
6206;DHT22;3136;48.788;9.772;2023-12-04T09:30:35;-2.10;99.90
6206;DHT22;3136;48.788;9.772;2023-12-04T09:33:01;-2.20;99.90
6206;DHT22;3136;48.788;9.772;2023-12-04T09:35:26;-2.20;99.90
6206;DHT22;3136;48.788;9.772;2023-12-04T09:37:52;-2.20;99.90
6206;DHT22;3136;48.788;9.772;2023-12-04T09:40:18;-2.20;1.00
6206;DHT22;3136;48.788;9.772;2023-12-04T09:42:43;-2.10;99.90
6206;DHT22;3136;48.788;9.772;2023-12-04T09:45:09;-2.10;1.00
6206;DHT22;3136;48.788;9.772;2023-12-04T09:47:35;-2.00;99.90
6206;DHT22;3136;48.788;9.772;2023-12-04T09:50:01;-1.90;99.90
6206;DHT22;3136;48.788;9.772;2023-12-04T09:52:28;-1.90;1.00
6206;DHT22;3136;48.788;9.772;2023-12-04T09:54:53;-1.90;1.00
6206;DHT22;3136;48.788;9.772;2023-12-04T09:57:19;-1.90;1.00
6206;DHT22;3136;48.788;9.772;2023-12-04T09:59:47;-1.80;99.90
6206;DHT22;3136;48.788;9.772;2023-12-04T10:02:14;-1.80;99.90
6206;DHT22;3136;48.788;9.772;2023-12-04T10:04:40;-1.70;99.90
6206;DHT22;3136;48.788;9.772;2023-12-04T10:07:06;-1.70;99.90
6206;DHT22;3136;48.788;9.772;2023-12-04T10:09:32;-1.70;99.90
6206;DHT22;3136;48.788;9.772;2023-12-04T10:11:57;-1.60;1.00
6206;DHT22;3136;48.788;9.772;2023-12-04T10:14:23;-1.50;1.00
6206;DHT22;3136;48.788;9.772;2023-12-04T10:16:49;-1.30;1.00
6206;DHT22;3136;48.788;9.772;2023-12-04T10:19:23;-1.30;99.90
6206;DHT22;3136;48.788;9.772;2023-12-04T10:21:51;-1.30;99.90
6206;DHT22;3136;48.788;9.772;2023-12-04T10:24:32;-1.30;99.90
6206;DHT22;3136;48.788;9.772;2023-12-04T10:26:59;-1.20;99.90
6206;DHT22;3136;48.788;9.772;2023-12-04T10:29:29;-1.20;1.00
6206;DHT22;3136;48.788;9.772;2023-12-04T10:32:00;-1.00;99.90
6206;DHT22;3136;48.788;9.772;2023-12-04T10:34:26;-1.00;1.00
6206;DHT22;3136;48.788;9.772;2023-12-04T10:36:52;-1.00;1.00
6206;DHT22;3136;48.788;9.772;2023-12-04T10:39:17;-1.00;1.00
6206;DHT22;3136;48.788;9.772;2023-12-04T10:41:44;-0.90;99.90
6206;DHT22;3136;48.788;9.772;2023-12-04T10:44:09;-0.90;99.90
6206;DHT22;3136;48.788;9.772;2023-12-04T10:46:38;-0.90;1.00
6206;DHT22;3136;48.788;9.772;2023-12-04T10:49:07;-0.80;1.00
6206;DHT22;3136;48.788;9.772;2023-12-04T10:51:34;-0.60;1.00
6206;DHT22;3136;48.788;9.772;2023-12-04T10:54:00;-0.50;1.00
6206;DHT22;3136;48.788;9.772;2023-12-04T10:56:31;-0.50;1.00
6206;DHT22;3136;48.788;9.772;2023-12-04T10:59:00;-1.20;1.00
6206;DHT22;3136;48.788;9.772;2023-12-04T11:01:27;-0.70;99.90
6206;DHT22;3136;48.788;9.772;2023-12-04T11:03:56;-0.70;99.90
6206;DHT22;3136;48.788;9.772;2023-12-04T11:06:24;-0.60;99.90
6206;DHT22;3136;48.788;9.772;2023-12-04T11:08:53;-0.60;99.90
6206;DHT22;3136;48.788;9.772;2023-12-04T11:11:27;-0.60;99.90
6206;DHT22;3136;48.788;9.772;2023-12-04T11:14:00;-0.60;14.20
6206;DHT22;3136;48.788;9.772;2023-12-04T11:16:50;-0.60;1.00
6206;DHT22;3136;48.788;9.772;2023-12-04T11:21:58;-0.60;1.00
6206;DHT22;3136;48.788;9.772;2023-12-04T11:24:24;-0.50;1.00
6206;DHT22;3136;48.788;9.772;2023-12-04T11:26:50;-0.50;1.00
6206;DHT22;3136;48.788;9.772;2023-12-04T11:29:16;-0.30;1.00
6206;DHT22;3136;48.788;9.772;2023-12-04T11:31:42;-0.30;1.00
6206;DHT22;3136;48.788;9.772;2023-12-04T11:34:08;-0.20;1.00
6206;DHT22;3136;48.788;9.772;2023-12-04T11:36:35;-0.10;1.00
6206;DHT22;3136;48.788;9.772;2023-12-04T11:39:01;-0.10;1.00
6206;DHT22;3136;48.788;9.772;2023-12-04T11:41:26;-0.10;1.00
6206;DHT22;3136;48.788;9.772;2023-12-04T11:43:54;-0.10;1.00
6206;DHT22;3136;48.788;9.772;2023-12-04T11:46:22;-0.10;1.00
6206;DHT22;3136;48.788;9.772;2023-12-04T11:48:49;-0.10;1.00
6206;DHT22;3136;48.788;9.772;2023-12-04T11:54:15;-0.20;1.00
6206;DHT22;3136;48.788;9.772;2023-12-04T11:59:37;-0.20;1.00
6206;DHT22;3136;48.788;9.772;2023-12-04T12:02:03;-0.20;1.00
6206;DHT22;3136;48.788;9.772;2023-12-04T12:04:32;-0.10;1.00
6206;DHT22;3136;48.788;9.772;2023-12-04T12:06:58;-0.20;1.00
6206;DHT22;3136;48.788;9.772;2023-12-04T12:09:24;-0.20;1.00
6206;DHT22;3136;48.788;9.772;2023-12-04T12:11:49;-0.20;1.00
6206;DHT22;3136;48.788;9.772;2023-12-04T12:14:15;-0.30;1.00
6206;DHT22;3136;48.788;9.772;2023-12-04T12:16:40;-0.40;10.50
6206;DHT22;3136;48.788;9.772;2023-12-04T12:19:06;-0.40;99.90
6206;DHT22;3136;48.788;9.772;2023-12-04T12:21:32;-0.40;99.90
6206;DHT22;3136;48.788;9.772;2023-12-04T12:23:58;-0.40;99.90
6206;DHT22;3136;48.788;9.772;2023-12-04T12:26:23;-0.50;99.90
6206;DHT22;3136;48.788;9.772;2023-12-04T12:28:49;-0.50;1.00
6206;DHT22;3136;48.788;9.772;2023-12-04T12:31:15;-0.60;1.00
6206;DHT22;3136;48.788;9.772;2023-12-04T12:33:40;-0.60;1.00
6206;DHT22;3136;48.788;9.772;2023-12-04T12:36:06;-0.60;1.00
6206;DHT22;3136;48.788;9.772;2023-12-04T12:38:32;-0.70;1.00
6206;DHT22;3136;48.788;9.772;2023-12-04T12:41:01;-0.70;1.00
6206;DHT22;3136;48.788;9.772;2023-12-04T12:43:30;-0.60;1.00
6206;DHT22;3136;48.788;9.772;2023-12-04T12:45:56;-0.60;55.50
6206;DHT22;3136;48.788;9.772;2023-12-04T12:48:21;-0.50;72.50
6206;DHT22;3136;48.788;9.772;2023-12-04T12:50:47;-0.50;17.60
6206;DHT22;3136;48.788;9.772;2023-12-04T12:53:17;-0.40;1.00
6206;DHT22;3136;48.788;9.772;2023-12-04T12:55:43;-0.40;1.00
6206;DHT22;3136;48.788;9.772;2023-12-04T12:58:12;-0.30;1.00
6206;DHT22;3136;48.788;9.772;2023-12-04T13:00:47;-0.30;1.00
6206;DHT22;3136;48.788;9.772;2023-12-04T13:03:17;-0.20;1.00
6206;DHT22;3136;48.788;9.772;2023-12-04T13:05:43;-0.20;99.90
6206;DHT22;3136;48.788;9.772;2023-12-04T13:08:09;-0.30;99.90
6206;DHT22;3136;48.788;9.772;2023-12-04T13:10:36;-0.30;99.90
6206;DHT22;3136;48.788;9.772;2023-12-04T13:13:02;-0.30;99.90
6206;DHT22;3136;48.788;9.772;2023-12-04T13:15:28;-0.20;99.90
6206;DHT22;3136;48.788;9.772;2023-12-04T13:17:53;-0.20;99.90
6206;DHT22;3136;48.788;9.772;2023-12-04T13:20:19;-0.30;99.90
6206;DHT22;3136;48.788;9.772;2023-12-04T13:22:44;-0.30;99.90
6206;DHT22;3136;48.788;9.772;2023-12-04T13:25:10;-0.30;99.90
6206;DHT22;3136;48.788;9.772;2023-12-04T13:27:37;-0.30;99.90
6206;DHT22;3136;48.788;9.772;2023-12-04T13:30:06;-0.40;99.90
6206;DHT22;3136;48.788;9.772;2023-12-04T13:32:35;-0.40;99.90
6206;DHT22;3136;48.788;9.772;2023-12-04T13:35:01;-0.40;1.00
6206;DHT22;3136;48.788;9.772;2023-12-04T13:37:27;-0.40;1.00
6206;DHT22;3136;48.788;9.772;2023-12-04T13:39:54;-0.40;1.00
6206;DHT22;3136;48.788;9.772;2023-12-04T13:42:26;-0.40;1.00
6206;DHT22;3136;48.788;9.772;2023-12-04T13:45:11;-0.40;1.00
6206;DHT22;3136;48.788;9.772;2023-12-04T13:47:38;-0.50;1.00
6206;DHT22;3136;48.788;9.772;2023-12-04T13:50:05;-0.50;1.00
6206;DHT22;3136;48.788;9.772;2023-12-04T13:52:31;-0.50;1.00
6206;DHT22;3136;48.788;9.772;2023-12-04T13:54:59;-0.60;1.00
6206;DHT22;3136;48.788;9.772;2023-12-04T13:57:25;-0.60;86.70
6206;DHT22;3136;48.788;9.772;2023-12-04T13:59:58;-0.60;99.90
6206;DHT22;3136;48.788;9.772;2023-12-04T14:02:25;-0.60;99.90
6206;DHT22;3136;48.788;9.772;2023-12-04T14:04:50;-0.60;99.90
6206;DHT22;3136;48.788;9.772;2023-12-04T14:07:16;-0.60;99.90
6206;DHT22;3136;48.788;9.772;2023-12-04T14:09:43;-0.60;99.90
6206;DHT22;3136;48.788;9.772;2023-12-04T14:12:10;-0.70;1.00
6206;DHT22;3136;48.788;9.772;2023-12-04T14:14:36;-0.70;1.00
6206;DHT22;3136;48.788;9.772;2023-12-04T14:17:03;-0.70;46.60
6206;DHT22;3136;48.788;9.772;2023-12-04T14:19:30;-0.80;99.90
6206;DHT22;3136;48.788;9.772;2023-12-04T14:21:55;-0.80;1.00
6206;DHT22;3136;48.788;9.772;2023-12-04T14:24:21;-0.80;1.00
6206;DHT22;3136;48.788;9.772;2023-12-04T14:26:48;-0.70;1.00
6206;DHT22;3136;48.788;9.772;2023-12-04T14:29:13;-0.70;1.00
6206;DHT22;3136;48.788;9.772;2023-12-04T14:31:39;-0.70;1.40
6206;DHT22;3136;48.788;9.772;2023-12-04T14:34:05;-0.70;99.90
6206;DHT22;3136;48.788;9.772;2023-12-04T14:36:31;-0.70;99.90
6206;DHT22;3136;48.788;9.772;2023-12-04T14:38:58;-0.70;1.00
6206;DHT22;3136;48.788;9.772;2023-12-04T14:41:23;-0.60;1.00
6206;DHT22;3136;48.788;9.772;2023-12-04T14:43:49;-0.70;1.00
6206;DHT22;3136;48.788;9.772;2023-12-04T14:46:14;-0.70;99.90
6206;DHT22;3136;48.788;9.772;2023-12-04T14:48:40;-0.60;99.90
6206;DHT22;3136;48.788;9.772;2023-12-04T14:51:07;-0.60;99.90
6206;DHT22;3136;48.788;9.772;2023-12-04T14:53:33;-0.60;99.90
6206;DHT22;3136;48.788;9.772;2023-12-04T14:56:36;-0.60;1.00
6206;DHT22;3136;48.788;9.772;2023-12-04T14:59:02;-0.70;1.00
6206;DHT22;3136;48.788;9.772;2023-12-04T15:01:30;-0.70;1.00
6206;DHT22;3136;48.788;9.772;2023-12-04T15:04:02;-0.60;1.00
6206;DHT22;3136;48.788;9.772;2023-12-04T15:06:46;-0.60;1.00
6206;DHT22;3136;48.788;9.772;2023-12-04T15:09:18;-0.60;51.90
6206;DHT22;3136;48.788;9.772;2023-12-04T15:11:52;-0.70;99.90
6206;DHT22;3136;48.788;9.772;2023-12-04T15:14:37;0.50;1.00
6206;DHT22;3136;48.788;9.772;2023-12-04T15:17:17;-0.60;99.90
6206;DHT22;3136;48.788;9.772;2023-12-04T15:19:57;-0.60;1.00
6206;DHT22;3136;48.788;9.772;2023-12-04T15:22:23;-0.60;1.00
6206;DHT22;3136;48.788;9.772;2023-12-04T15:24:49;-0.70;1.00
6206;DHT22;3136;48.788;9.772;2023-12-04T15:27:14;-0.70;99.90
6206;DHT22;3136;48.788;9.772;2023-12-04T15:29:40;-0.70;99.90
6206;DHT22;3136;48.788;9.772;2023-12-04T15:32:07;-0.70;1.00
6206;DHT22;3136;48.788;9.772;2023-12-04T15:34:32;-0.70;1.00
6206;DHT22;3136;48.788;9.772;2023-12-04T15:36:58;-0.80;99.90
6206;DHT22;3136;48.788;9.772;2023-12-04T15:39:23;-0.80;1.00
6206;DHT22;3136;48.788;9.772;2023-12-04T15:41:49;-0.80;1.00
6206;DHT22;3136;48.788;9.772;2023-12-04T15:44:14;-0.80;99.90
6206;DHT22;3136;48.788;9.772;2023-12-04T15:46:40;-0.80;1.00
6206;DHT22;3136;48.788;9.772;2023-12-04T15:49:05;-0.80;1.00
6206;DHT22;3136;48.788;9.772;2023-12-04T15:51:31;-0.70;99.90
6206;DHT22;3136;48.788;9.772;2023-12-04T15:53:57;-0.70;99.90
6206;DHT22;3136;48.788;9.772;2023-12-04T15:56:22;-0.70;99.90
6206;DHT22;3136;48.788;9.772;2023-12-04T15:58:48;-0.70;1.00
6206;DHT22;3136;48.788;9.772;2023-12-04T16:01:13;-0.70;1.00
6206;DHT22;3136;48.788;9.772;2023-12-04T16:03:39;-0.70;1.00
6206;DHT22;3136;48.788;9.772;2023-12-04T16:06:05;-0.70;99.90
6206;DHT22;3136;48.788;9.772;2023-12-04T16:08:31;-0.70;99.90
6206;DHT22;3136;48.788;9.772;2023-12-04T16:10:56;-0.70;1.00
6206;DHT22;3136;48.788;9.772;2023-12-04T16:13:22;-0.70;1.00
6206;DHT22;3136;48.788;9.772;2023-12-04T16:15:47;-0.70;1.00
6206;DHT22;3136;48.788;9.772;2023-12-04T16:18:14;-0.70;1.00